Lagarto, Brazil
Current Conditions -  °F | °C
As of 9:00 AM on Saturday 01 Nov 2014 (Local Time) from SBAR Reporting Station
Scattered Clouds Scattered Clouds  
Wind Chill: 82°   Ceiling: Unl
Heat Index: 85°   Visibility: 6mi
Dew Point: 68°   Wind: 10mph
Humidity: 62%   Direction: 120°ESE
Pressure: 30"   Gusts: NA
Location:  10.92°S, 37.65°W
Report Text: SBAR 011200Z 12009KT 9999 SCT018 SCT080 28/20 Q1016
Loading
Personal Weather Stations






























Interactive Weather Map
Tropical Storm Tracking
New forecast layout! Learn more

10-Day Weather Forecast

Advertisements
Track Severe Weather on mobile